sensor_id;sensor_type;location;lat;lon;timestamp;P1;durP1;ratioP1;P2;durP2;ratioP2
40815;SDS011;26535;48.788;9.214;2023-04-24T00:00:10;0.88;;;0.20;;
40815;SDS011;26535;48.788;9.214;2023-04-24T05:01:20;1.35;;;0.60;;
40815;SDS011;26535;48.788;9.214;2023-04-24T05:03:49;1.88;;;0.60;;
40815;SDS011;26535;48.788;9.214;2023-04-24T05:06:16;1.40;;;0.60;;
40815;SDS011;26535;48.788;9.214;2023-04-24T05:08:43;2.28;;;0.70;;
40815;SDS011;26535;48.788;9.214;2023-04-24T05:11:15;2.42;;;1.08;;
40815;SDS011;26535;48.788;9.214;2023-04-24T05:13:41;2.28;;;0.85;;
40815;SDS011;26535;48.788;9.214;2023-04-24T05:16:12;2.33;;;0.90;;
40815;SDS011;26535;48.788;9.214;2023-04-24T05:18:38;2.08;;;0.80;;
40815;SDS011;26535;48.788;9.214;2023-04-24T05:21:06;3.03;;;0.70;;
40815;SDS011;26535;48.788;9.214;2023-04-24T05:23:32;1.65;;;0.73;;
40815;SDS011;26535;48.788;9.214;2023-04-24T05:25:57;3.03;;;0.60;;
40815;SDS011;26535;48.788;9.214;2023-04-24T05:28:23;3.25;;;0.65;;
40815;SDS011;26535;48.788;9.214;2023-04-24T05:31:02;2.67;;;0.77;;
40815;SDS011;26535;48.788;9.214;2023-04-24T05:33:28;3.17;;;0.70;;
40815;SDS011;26535;48.788;9.214;2023-04-24T05:35:54;2.15;;;0.68;;
40815;SDS011;26535;48.788;9.214;2023-04-24T05:38:20;2.88;;;0.75;;
40815;SDS011;26535;48.788;9.214;2023-04-24T05:40:46;1.58;;;0.50;;
40815;SDS011;26535;48.788;9.214;2023-04-24T05:43:12;1.85;;;0.90;;
40815;SDS011;26535;48.788;9.214;2023-04-24T05:45:38;1.67;;;0.93;;
40815;SDS011;26535;48.788;9.214;2023-04-24T05:48:05;1.90;;;0.70;;
40815;SDS011;26535;48.788;9.214;2023-04-24T05:50:31;3.67;;;0.90;;
40815;SDS011;26535;48.788;9.214;2023-04-24T05:52:57;1.38;;;0.65;;
40815;SDS011;26535;48.788;9.214;2023-04-24T05:55:31;3.80;;;0.80;;
40815;SDS011;26535;48.788;9.214;2023-04-24T05:57:57;1.15;;;0.63;;
40815;SDS011;26535;48.788;9.214;2023-04-24T06:00:24;2.65;;;0.90;;
40815;SDS011;26535;48.788;9.214;2023-04-24T06:02:59;2.67;;;1.10;;
40815;SDS011;26535;48.788;9.214;2023-04-24T06:05:26;2.65;;;0.80;;
40815;SDS011;26535;48.788;9.214;2023-04-24T06:07:52;3.40;;;0.90;;
40815;SDS011;26535;48.788;9.214;2023-04-24T06:10:20;1.67;;;0.80;;
40815;SDS011;26535;48.788;9.214;2023-04-24T06:12:46;1.92;;;0.80;;
40815;SDS011;26535;48.788;9.214;2023-04-24T06:15:15;1.80;;;0.82;;
40815;SDS011;26535;48.788;9.214;2023-04-24T06:17:54;1.75;;;0.70;;
40815;SDS011;26535;48.788;9.214;2023-04-24T06:20:20;2.25;;;0.93;;
40815;SDS011;26535;48.788;9.214;2023-04-24T06:22:46;2.15;;;0.90;;
40815;SDS011;26535;48.788;9.214;2023-04-24T06:25:12;3.25;;;0.95;;
40815;SDS011;26535;48.788;9.214;2023-04-24T06:27:37;4.30;;;0.90;;
40815;SDS011;26535;48.788;9.214;2023-04-24T06:30:03;2.90;;;0.90;;
40815;SDS011;26535;48.788;9.214;2023-04-24T06:32:29;1.70;;;1.00;;
40815;SDS011;26535;48.788;9.214;2023-04-24T06:34:56;2.80;;;0.80;;
40815;SDS011;26535;48.788;9.214;2023-04-24T06:37:21;3.30;;;1.00;;
40815;SDS011;26535;48.788;9.214;2023-04-24T06:39:47;2.13;;;0.93;;
40815;SDS011;26535;48.788;9.214;2023-04-24T06:42:13;1.77;;;0.75;;
40815;SDS011;26535;48.788;9.214;2023-04-24T06:44:42;2.53;;;1.00;;
40815;SDS011;26535;48.788;9.214;2023-04-24T06:47:08;2.15;;;1.05;;
40815;SDS011;26535;48.788;9.214;2023-04-24T06:49:38;3.67;;;0.93;;
40815;SDS011;26535;48.788;9.214;2023-04-24T06:52:05;2.30;;;0.82;;
40815;SDS011;26535;48.788;9.214;2023-04-24T06:54:31;2.92;;;1.10;;
40815;SDS011;26535;48.788;9.214;2023-04-24T06:56:58;2.75;;;0.93;;
40815;SDS011;26535;48.788;9.214;2023-04-24T06:59:26;2.10;;;1.00;;
40815;SDS011;26535;48.788;9.214;2023-04-24T07:01:52;3.13;;;0.90;;
40815;SDS011;26535;48.788;9.214;2023-04-24T07:04:18;2.55;;;1.23;;
40815;SDS011;26535;48.788;9.214;2023-04-24T07:06:47;2.55;;;0.80;;
40815;SDS011;26535;48.788;9.214;2023-04-24T07:09:14;3.03;;;0.95;;
40815;SDS011;26535;48.788;9.214;2023-04-24T07:11:41;1.55;;;0.80;;
40815;SDS011;26535;48.788;9.214;2023-04-24T07:14:07;2.13;;;1.10;;
40815;SDS011;26535;48.788;9.214;2023-04-24T07:16:33;1.98;;;0.90;;
40815;SDS011;26535;48.788;9.214;2023-04-24T07:18:58;4.13;;;1.20;;
40815;SDS011;26535;48.788;9.214;2023-04-24T07:21:25;1.95;;;1.10;;
40815;SDS011;26535;48.788;9.214;2023-04-24T07:23:52;4.05;;;1.10;;
40815;SDS011;26535;48.788;9.214;2023-04-24T07:26:18;2.42;;;1.02;;
40815;SDS011;26535;48.788;9.214;2023-04-24T07:28:45;2.20;;;0.80;;
40815;SDS011;26535;48.788;9.214;2023-04-24T07:31:11;2.10;;;1.00;;
40815;SDS011;26535;48.788;9.214;2023-04-24T07:33:40;2.42;;;0.82;;
40815;SDS011;26535;48.788;9.214;2023-04-24T07:36:06;4.88;;;0.90;;
40815;SDS011;26535;48.788;9.214;2023-04-24T07:38:31;3.08;;;0.70;;
40815;SDS011;26535;48.788;9.214;2023-04-24T07:40:57;2.25;;;0.70;;
40815;SDS011;26535;48.788;9.214;2023-04-24T07:43:23;2.03;;;0.80;;
40815;SDS011;26535;48.788;9.214;2023-04-24T07:45:52;2.65;;;0.73;;
40815;SDS011;26535;48.788;9.214;2023-04-24T07:48:18;1.38;;;0.50;;
40815;SDS011;26535;48.788;9.214;2023-04-24T07:50:44;1.80;;;0.70;;
40815;SDS011;26535;48.788;9.214;2023-04-24T07:53:10;1.50;;;0.70;;
40815;SDS011;26535;48.788;9.214;2023-04-24T07:55:35;1.33;;;0.65;;
40815;SDS011;26535;48.788;9.214;2023-04-24T07:58:01;2.03;;;0.73;;
40815;SDS011;26535;48.788;9.214;2023-04-24T08:00:27;2.15;;;0.70;;
40815;SDS011;26535;48.788;9.214;2023-04-24T08:02:53;1.73;;;0.65;;
40815;SDS011;26535;48.788;9.214;2023-04-24T08:05:19;1.92;;;0.70;;
40815;SDS011;26535;48.788;9.214;2023-04-24T08:07:45;3.35;;;1.27;;
40815;SDS011;26535;48.788;9.214;2023-04-24T08:10:13;1.45;;;0.57;;
40815;SDS011;26535;48.788;9.214;2023-04-24T08:12:40;1.65;;;0.68;;
40815;SDS011;26535;48.788;9.214;2023-04-24T08:15:06;2.05;;;0.63;;
40815;SDS011;26535;48.788;9.214;2023-04-24T08:17:33;5.00;;;0.77;;
40815;SDS011;26535;48.788;9.214;2023-04-24T08:20:00;2.22;;;0.70;;
40815;SDS011;26535;48.788;9.214;2023-04-24T08:22:27;1.90;;;0.75;;
40815;SDS011;26535;48.788;9.214;2023-04-24T08:24:53;1.90;;;0.80;;
40815;SDS011;26535;48.788;9.214;2023-04-24T08:27:21;3.20;;;0.70;;
40815;SDS011;26535;48.788;9.214;2023-04-24T08:29:46;1.20;;;0.60;;
40815;SDS011;26535;48.788;9.214;2023-04-24T08:32:12;2.70;;;0.90;;
40815;SDS011;26535;48.788;9.214;2023-04-24T08:34:38;2.53;;;0.70;;
40815;SDS011;26535;48.788;9.214;2023-04-24T08:37:03;2.90;;;0.70;;
40815;SDS011;26535;48.788;9.214;2023-04-24T08:39:29;2.53;;;0.85;;
40815;SDS011;26535;48.788;9.214;2023-04-24T08:41:55;1.67;;;0.70;;
40815;SDS011;26535;48.788;9.214;2023-04-24T08:44:21;1.92;;;0.68;;
40815;SDS011;26535;48.788;9.214;2023-04-24T08:46:47;3.03;;;0.90;;
40815;SDS011;26535;48.788;9.214;2023-04-24T08:49:14;2.30;;;0.93;;
40815;SDS011;26535;48.788;9.214;2023-04-24T08:51:41;2.70;;;0.70;;
40815;SDS011;26535;48.788;9.214;2023-04-24T08:54:07;1.73;;;0.70;;
40815;SDS011;26535;48.788;9.214;2023-04-24T08:56:34;2.50;;;0.95;;
40815;SDS011;26535;48.788;9.214;2023-04-24T08:59:04;2.40;;;0.98;;
40815;SDS011;26535;48.788;9.214;2023-04-24T09:01:34;1.80;;;0.75;;
40815;SDS011;26535;48.788;9.214;2023-04-24T09:04:02;1.83;;;0.63;;
40815;SDS011;26535;48.788;9.214;2023-04-24T09:06:29;2.45;;;0.82;;
40815;SDS011;26535;48.788;9.214;2023-04-24T09:08:57;1.52;;;0.80;;
40815;SDS011;26535;48.788;9.214;2023-04-24T09:11:26;1.88;;;0.73;;
40815;SDS011;26535;48.788;9.214;2023-04-24T09:13:53;2.58;;;1.00;;
40815;SDS011;26535;48.788;9.214;2023-04-24T09:16:20;1.80;;;0.80;;
40815;SDS011;26535;48.788;9.214;2023-04-24T09:18:45;1.73;;;0.70;;
40815;SDS011;26535;48.788;9.214;2023-04-24T09:21:11;1.98;;;0.80;;
40815;SDS011;26535;48.788;9.214;2023-04-24T09:23:37;4.10;;;1.17;;
40815;SDS011;26535;48.788;9.214;2023-04-24T09:26:04;2.03;;;0.90;;
40815;SDS011;26535;48.788;9.214;2023-04-24T09:28:31;2.42;;;0.80;;
40815;SDS011;26535;48.788;9.214;2023-04-24T09:36:35;2.10;;;0.95;;
40815;SDS011;26535;48.788;9.214;2023-04-24T09:39:06;2.10;;;1.08;;
40815;SDS011;26535;48.788;9.214;2023-04-24T09:41:45;1.77;;;0.85;;
40815;SDS011;26535;48.788;9.214;2023-04-24T09:44:15;3.33;;;1.13;;
40815;SDS011;26535;48.788;9.214;2023-04-24T09:46:55;5.00;;;1.00;;
40815;SDS011;26535;48.788;9.214;2023-04-24T09:49:22;2.72;;;0.90;;
40815;SDS011;26535;48.788;9.214;2023-04-24T09:51:49;1.65;;;0.70;;
40815;SDS011;26535;48.788;9.214;2023-04-24T09:54:16;1.98;;;0.88;;
40815;SDS011;26535;48.788;9.214;2023-04-24T09:56:44;2.92;;;0.82;;
40815;SDS011;26535;48.788;9.214;2023-04-24T09:59:10;1.90;;;0.80;;
40815;SDS011;26535;48.788;9.214;2023-04-24T10:01:37;1.83;;;0.70;;
40815;SDS011;26535;48.788;9.214;2023-04-24T10:04:06;4.10;;;0.90;;
40815;SDS011;26535;48.788;9.214;2023-04-24T10:06:34;2.83;;;0.90;;
40815;SDS011;26535;48.788;9.214;2023-04-24T10:09:01;1.27;;;0.60;;
40815;SDS011;26535;48.788;9.214;2023-04-24T10:11:28;2.15;;;0.80;;
40815;SDS011;26535;48.788;9.214;2023-04-24T10:13:55;2.05;;;0.60;;
40815;SDS011;26535;48.788;9.214;2023-04-24T10:16:22;1.75;;;0.60;;
40815;SDS011;26535;48.788;9.214;2023-04-24T10:18:52;1.40;;;0.55;;
40815;SDS011;26535;48.788;9.214;2023-04-24T10:21:18;2.58;;;0.50;;
40815;SDS011;26535;48.788;9.214;2023-04-24T10:23:44;1.95;;;0.70;;
40815;SDS011;26535;48.788;9.214;2023-04-24T10:26:14;2.53;;;0.88;;
40815;SDS011;26535;48.788;9.214;2023-04-24T10:28:46;1.67;;;0.68;;
40815;SDS011;26535;48.788;9.214;2023-04-24T10:31:13;1.95;;;0.70;;
40815;SDS011;26535;48.788;9.214;2023-04-24T10:33:40;2.13;;;0.60;;
40815;SDS011;26535;48.788;9.214;2023-04-24T10:36:07;1.65;;;0.60;;
40815;SDS011;26535;48.788;9.214;2023-04-24T10:38:35;2.35;;;0.70;;
40815;SDS011;26535;48.788;9.214;2023-04-24T10:41:09;1.15;;;0.60;;
40815;SDS011;26535;48.788;9.214;2023-04-24T10:43:41;1.77;;;0.60;;
40815;SDS011;26535;48.788;9.214;2023-04-24T10:46:08;1.48;;;0.63;;
40815;SDS011;26535;48.788;9.214;2023-04-24T10:48:35;2.05;;;0.70;;
40815;SDS011;26535;48.788;9.214;2023-04-24T10:51:10;1.92;;;0.60;;
40815;SDS011;26535;48.788;9.214;2023-04-24T10:53:38;1.65;;;0.68;;
40815;SDS011;26535;48.788;9.214;2023-04-24T10:58:36;3.13;;;1.40;;
40815;SDS011;26535;48.788;9.214;2023-04-24T11:01:03;2.97;;;0.63;;
40815;SDS011;26535;48.788;9.214;2023-04-24T11:03:30;2.40;;;0.60;;
40815;SDS011;26535;48.788;9.214;2023-04-24T11:08:28;1.17;;;0.47;;
40815;SDS011;26535;48.788;9.214;2023-04-24T11:13:25;1.70;;;0.60;;
40815;SDS011;26535;48.788;9.214;2023-04-24T11:21:46;2.00;;;0.60;;
40815;SDS011;26535;48.788;9.214;2023-04-24T11:26:58;2.28;;;0.80;;
40815;SDS011;26535;48.788;9.214;2023-04-24T11:29:58;1.10;;;0.60;;
40815;SDS011;26535;48.788;9.214;2023-04-24T11:35:05;1.55;;;0.70;;
40815;SDS011;26535;48.788;9.214;2023-04-24T11:37:49;1.90;;;0.60;;
40815;SDS011;26535;48.788;9.214;2023-04-24T11:40:18;1.00;;;0.45;;
40815;SDS011;26535;48.788;9.214;2023-04-24T11:42:49;1.38;;;0.75;;
40815;SDS011;26535;48.788;9.214;2023-04-24T11:45:16;2.65;;;0.60;;
40815;SDS011;26535;48.788;9.214;2023-04-24T11:47:50;1.42;;;0.70;;
40815;SDS011;26535;48.788;9.214;2023-04-24T11:50:17;3.08;;;0.70;;
40815;SDS011;26535;48.788;9.214;2023-04-24T11:52:45;1.40;;;0.60;;
40815;SDS011;26535;48.788;9.214;2023-04-24T11:57:47;2.67;;;0.85;;
40815;SDS011;26535;48.788;9.214;2023-04-24T12:00:21;2.08;;;1.00;;
40815;SDS011;26535;48.788;9.214;2023-04-24T12:02:49;2.35;;;0.70;;
40815;SDS011;26535;48.788;9.214;2023-04-24T12:05:25;3.20;;;0.63;;
40815;SDS011;26535;48.788;9.214;2023-04-24T12:07:52;1.67;;;0.60;;
40815;SDS011;26535;48.788;9.214;2023-04-24T12:10:25;2.65;;;0.80;;
40815;SDS011;26535;48.788;9.214;2023-04-24T12:12:52;1.88;;;0.68;;
40815;SDS011;26535;48.788;9.214;2023-04-24T12:15:19;1.58;;;0.70;;
40815;SDS011;26535;48.788;9.214;2023-04-24T12:17:45;2.58;;;0.70;;
40815;SDS011;26535;48.788;9.214;2023-04-24T12:20:12;1.50;;;0.47;;
40815;SDS011;26535;48.788;9.214;2023-04-24T12:22:55;3.33;;;1.63;;
40815;SDS011;26535;48.788;9.214;2023-04-24T12:25:23;1.65;;;0.60;;
40815;SDS011;26535;48.788;9.214;2023-04-24T12:28:10;1.23;;;0.60;;
40815;SDS011;26535;48.788;9.214;2023-04-24T12:33:09;2.28;;;0.70;;
40815;SDS011;26535;48.788;9.214;2023-04-24T12:35:35;2.15;;;0.70;;
40815;SDS011;26535;48.788;9.214;2023-04-24T12:38:13;1.83;;;0.70;;
40815;SDS011;26535;48.788;9.214;2023-04-24T12:40:41;2.25;;;0.80;;
40815;SDS011;26535;48.788;9.214;2023-04-24T12:43:17;1.83;;;0.70;;
40815;SDS011;26535;48.788;9.214;2023-04-24T12:45:44;4.07;;;0.95;;
40815;SDS011;26535;48.788;9.214;2023-04-24T12:48:11;1.90;;;0.80;;
40815;SDS011;26535;48.788;9.214;2023-04-24T12:50:37;2.22;;;0.82;;
40815;SDS011;26535;48.788;9.214;2023-04-24T12:53:03;2.30;;;0.80;;
40815;SDS011;26535;48.788;9.214;2023-04-24T12:55:29;1.75;;;0.82;;
40815;SDS011;26535;48.788;9.214;2023-04-24T12:57:55;1.77;;;0.70;;
40815;SDS011;26535;48.788;9.214;2023-04-24T13:00:21;2.20;;;0.82;;
40815;SDS011;26535;48.788;9.214;2023-04-24T13:02:47;2.05;;;0.77;;
40815;SDS011;26535;48.788;9.214;2023-04-24T13:05:12;3.70;;;0.80;;
40815;SDS011;26535;48.788;9.214;2023-04-24T13:07:39;2.15;;;0.60;;
40815;SDS011;26535;48.788;9.214;2023-04-24T13:10:05;3.03;;;0.70;;
40815;SDS011;26535;48.788;9.214;2023-04-24T13:12:32;3.25;;;0.85;;
40815;SDS011;26535;48.788;9.214;2023-04-24T13:14:58;2.05;;;0.88;;
40815;SDS011;26535;48.788;9.214;2023-04-24T13:17:24;1.42;;;0.70;;
40815;SDS011;26535;48.788;9.214;2023-04-24T13:19:50;1.88;;;0.63;;
40815;SDS011;26535;48.788;9.214;2023-04-24T13:22:16;1.55;;;0.60;;
40815;SDS011;26535;48.788;9.214;2023-04-24T13:24:46;3.03;;;0.73;;
40815;SDS011;26535;48.788;9.214;2023-04-24T13:27:13;1.10;;;0.70;;
40815;SDS011;26535;48.788;9.214;2023-04-24T13:29:40;2.55;;;0.65;;
40815;SDS011;26535;48.788;9.214;2023-04-24T13:32:06;1.55;;;0.47;;
40815;SDS011;26535;48.788;9.214;2023-04-24T13:34:32;1.65;;;0.60;;
40815;SDS011;26535;48.788;9.214;2023-04-24T13:37:00;1.63;;;0.70;;
40815;SDS011;26535;48.788;9.214;2023-04-24T13:39:28;1.58;;;0.50;;
40815;SDS011;26535;48.788;9.214;2023-04-24T13:41:54;1.25;;;0.60;;
40815;SDS011;26535;48.788;9.214;2023-04-24T13:44:20;1.55;;;0.70;;
40815;SDS011;26535;48.788;9.214;2023-04-24T13:46:47;1.80;;;0.70;;
40815;SDS011;26535;48.788;9.214;2023-04-24T13:49:15;2.37;;;0.60;;
40815;SDS011;26535;48.788;9.214;2023-04-24T13:51:42;3.13;;;0.80;;
40815;SDS011;26535;48.788;9.214;2023-04-24T13:54:08;2.10;;;0.80;;
40815;SDS011;26535;48.788;9.214;2023-04-24T13:56:33;2.65;;;0.90;;
40815;SDS011;26535;48.788;9.214;2023-04-24T13:58:59;2.97;;;1.15;;
40815;SDS011;26535;48.788;9.214;2023-04-24T14:01:25;3.03;;;1.10;;
40815;SDS011;26535;48.788;9.214;2023-04-24T14:03:54;2.85;;;1.13;;
40815;SDS011;26535;48.788;9.214;2023-04-24T14:06:20;2.22;;;1.40;;
40815;SDS011;26535;48.788;9.214;2023-04-24T14:08:48;2.25;;;1.20;;
40815;SDS011;26535;48.788;9.214;2023-04-24T14:11:14;1.98;;;1.05;;
40815;SDS011;26535;48.788;9.214;2023-04-24T14:13:40;1.42;;;0.80;;
40815;SDS011;26535;48.788;9.214;2023-04-24T14:16:07;1.50;;;0.68;;
40815;SDS011;26535;48.788;9.214;2023-04-24T14:18:33;1.45;;;0.70;;
40815;SDS011;26535;48.788;9.214;2023-04-24T14:20:59;1.42;;;0.60;;
40815;SDS011;26535;48.788;9.214;2023-04-24T14:23:26;2.10;;;0.70;;
40815;SDS011;26535;48.788;9.214;2023-04-24T14:25:52;1.58;;;0.55;;
40815;SDS011;26535;48.788;9.214;2023-04-24T14:28:18;1.65;;;0.63;;
40815;SDS011;26535;48.788;9.214;2023-04-24T14:30:45;1.77;;;0.70;;
40815;SDS011;26535;48.788;9.214;2023-04-24T14:33:11;1.50;;;0.50;;
40815;SDS011;26535;48.788;9.214;2023-04-24T14:35:38;2.30;;;0.60;;
40815;SDS011;26535;48.788;9.214;2023-04-24T14:38:05;2.22;;;0.60;;
40815;SDS011;26535;48.788;9.214;2023-04-24T14:40:31;1.70;;;0.50;;
40815;SDS011;26535;48.788;9.214;2023-04-24T14:42:57;2.47;;;0.60;;
40815;SDS011;26535;48.788;9.214;2023-04-24T14:45:26;1.25;;;0.38;;
40815;SDS011;26535;48.788;9.214;2023-04-24T14:47:52;1.10;;;0.40;;
40815;SDS011;26535;48.788;9.214;2023-04-24T14:50:19;1.98;;;0.57;;
40815;SDS011;26535;48.788;9.214;2023-04-24T14:52:45;3.25;;;0.70;;
40815;SDS011;26535;48.788;9.214;2023-04-24T14:55:11;2.72;;;0.80;;
40815;SDS011;26535;48.788;9.214;2023-04-24T14:57:37;3.03;;;0.80;;
40815;SDS011;26535;48.788;9.214;2023-04-24T15:00:03;1.83;;;0.75;;
40815;SDS011;26535;48.788;9.214;2023-04-24T15:02:35;2.10;;;0.70;;
40815;SDS011;26535;48.788;9.214;2023-04-24T15:05:05;2.50;;;0.70;;
40815;SDS011;26535;48.788;9.214;2023-04-24T15:07:31;2.83;;;0.70;;
40815;SDS011;26535;48.788;9.214;2023-04-24T15:09:58;1.55;;;0.85;;
40815;SDS011;26535;48.788;9.214;2023-04-24T15:12:23;1.88;;;0.60;;
40815;SDS011;26535;48.788;9.214;2023-04-24T15:14:49;2.38;;;0.93;;
40815;SDS011;26535;48.788;9.214;2023-04-24T15:17:15;2.45;;;0.90;;
40815;SDS011;26535;48.788;9.214;2023-04-24T15:19:41;2.08;;;0.80;;
40815;SDS011;26535;48.788;9.214;2023-04-24T15:22:07;2.50;;;0.88;;
40815;SDS011;26535;48.788;9.214;2023-04-24T15:24:33;2.20;;;0.95;;
40815;SDS011;26535;48.788;9.214;2023-04-24T15:26:59;4.55;;;1.10;;
40815;SDS011;26535;48.788;9.214;2023-04-24T15:29:26;3.03;;;0.97;;
40815;SDS011;26535;48.788;9.214;2023-04-24T15:31:53;2.90;;;1.17;;
40815;SDS011;26535;48.788;9.214;2023-04-24T15:34:21;1.65;;;0.90;;
40815;SDS011;26535;48.788;9.214;2023-04-24T15:36:47;3.00;;;1.05;;
40815;SDS011;26535;48.788;9.214;2023-04-24T15:39:13;1.92;;;1.08;;
40815;SDS011;26535;48.788;9.214;2023-04-24T15:41:39;3.65;;;1.25;;
40815;SDS011;26535;48.788;9.214;2023-04-24T15:44:04;5.95;;;1.85;;
40815;SDS011;26535;48.788;9.214;2023-04-24T15:46:30;3.20;;;1.38;;
40815;SDS011;26535;48.788;9.214;2023-04-24T15:48:59;2.45;;;1.52;;
40815;SDS011;26535;48.788;9.214;2023-04-24T15:51:25;3.60;;;1.30;;
40815;SDS011;26535;48.788;9.214;2023-04-24T15:53:51;2.25;;;1.30;;
40815;SDS011;26535;48.788;9.214;2023-04-24T15:56:17;2.22;;;1.00;;
40815;SDS011;26535;48.788;9.214;2023-04-24T15:58:44;2.13;;;0.88;;
40815;SDS011;26535;48.788;9.214;2023-04-24T16:01:10;1.80;;;1.02;;
40815;SDS011;26535;48.788;9.214;2023-04-24T16:03:36;2.55;;;1.10;;
40815;SDS011;26535;48.788;9.214;2023-04-24T16:06:02;2.65;;;0.80;;
40815;SDS011;26535;48.788;9.214;2023-04-24T16:08:27;3.35;;;1.30;;
40815;SDS011;26535;48.788;9.214;2023-04-24T16:10:56;1.85;;;0.82;;
40815;SDS011;26535;48.788;9.214;2023-04-24T16:13:22;1.88;;;0.90;;
40815;SDS011;26535;48.788;9.214;2023-04-24T16:15:49;1.70;;;0.88;;
40815;SDS011;26535;48.788;9.214;2023-04-24T16:18:15;1.30;;;0.60;;
40815;SDS011;26535;48.788;9.214;2023-04-24T16:20:41;1.50;;;0.70;;
40815;SDS011;26535;48.788;9.214;2023-04-24T16:23:07;1.60;;;0.70;;
40815;SDS011;26535;48.788;9.214;2023-04-24T16:25:33;3.15;;;0.88;;
40815;SDS011;26535;48.788;9.214;2023-04-24T16:27:58;1.90;;;0.70;;
40815;SDS011;26535;48.788;9.214;2023-04-24T16:30:24;3.30;;;0.90;;
40815;SDS011;26535;48.788;9.214;2023-04-24T16:32:50;3.75;;;1.05;;
40815;SDS011;26535;48.788;9.214;2023-04-24T16:35:19;2.53;;;0.90;;
40815;SDS011;26535;48.788;9.214;2023-04-24T16:37:45;2.20;;;0.90;;
40815;SDS011;26535;48.788;9.214;2023-04-24T16:40:11;3.35;;;0.98;;
40815;SDS011;26535;48.788;9.214;2023-04-24T16:42:37;2.85;;;0.80;;
40815;SDS011;26535;48.788;9.214;2023-04-24T16:45:08;3.67;;;0.95;;
40815;SDS011;26535;48.788;9.214;2023-04-24T16:47:37;3.08;;;1.17;;
40815;SDS011;26535;48.788;9.214;2023-04-24T16:50:03;1.98;;;0.82;;
40815;SDS011;26535;48.788;9.214;2023-04-24T16:52:29;4.53;;;1.08;;
40815;SDS011;26535;48.788;9.214;2023-04-24T16:54:55;2.88;;;1.00;;
40815;SDS011;26535;48.788;9.214;2023-04-24T16:57:23;2.42;;;1.20;;
40815;SDS011;26535;48.788;9.214;2023-04-24T16:59:49;3.15;;;1.27;;
40815;SDS011;26535;48.788;9.214;2023-04-24T17:02:18;2.60;;;1.10;;
40815;SDS011;26535;48.788;9.214;2023-04-24T17:04:43;3.70;;;1.20;;
40815;SDS011;26535;48.788;9.214;2023-04-24T17:07:09;3.28;;;1.10;;
40815;SDS011;26535;48.788;9.214;2023-04-24T17:09:38;3.25;;;1.17;;
40815;SDS011;26535;48.788;9.214;2023-04-24T17:12:04;3.15;;;1.13;;
40815;SDS011;26535;48.788;9.214;2023-04-24T17:14:30;2.72;;;1.40;;
40815;SDS011;26535;48.788;9.214;2023-04-24T17:16:55;1.63;;;0.70;;
40815;SDS011;26535;48.788;9.214;2023-04-24T17:19:21;2.15;;;1.00;;
40815;SDS011;26535;48.788;9.214;2023-04-24T17:21:47;3.40;;;1.00;;
40815;SDS011;26535;48.788;9.214;2023-04-24T17:24:13;2.80;;;0.98;;
40815;SDS011;26535;48.788;9.214;2023-04-24T17:26:39;2.70;;;0.80;;
40815;SDS011;26535;48.788;9.214;2023-04-24T17:29:04;2.20;;;0.70;;
40815;SDS011;26535;48.788;9.214;2023-04-24T17:31:30;2.00;;;0.90;;
40815;SDS011;26535;48.788;9.214;2023-04-24T17:33:56;3.00;;;1.00;;
40815;SDS011;26535;48.788;9.214;2023-04-24T17:36:23;1.50;;;0.70;;
40815;SDS011;26535;48.788;9.214;2023-04-24T17:38:49;2.30;;;0.77;;
40815;SDS011;26535;48.788;9.214;2023-04-24T17:41:14;1.60;;;0.60;;
40815;SDS011;26535;48.788;9.214;2023-04-24T17:43:40;2.30;;;0.88;;
40815;SDS011;26535;48.788;9.214;2023-04-24T17:46:07;1.80;;;0.80;;
40815;SDS011;26535;48.788;9.214;2023-04-24T17:48:33;2.80;;;1.05;;
40815;SDS011;26535;48.788;9.214;2023-04-24T17:50:59;2.08;;;0.82;;
40815;SDS011;26535;48.788;9.214;2023-04-24T17:53:25;1.83;;;0.80;;
40815;SDS011;26535;48.788;9.214;2023-04-24T17:55:51;1.60;;;0.88;;
40815;SDS011;26535;48.788;9.214;2023-04-24T17:58:18;1.98;;;0.80;;
40815;SDS011;26535;48.788;9.214;2023-04-24T18:00:44;2.47;;;1.15;;
40815;SDS011;26535;48.788;9.214;2023-04-24T18:03:11;1.77;;;1.08;;
40815;SDS011;26535;48.788;9.214;2023-04-24T18:05:37;2.40;;;0.82;;
40815;SDS011;26535;48.788;9.214;2023-04-24T18:08:03;2.13;;;1.00;;
40815;SDS011;26535;48.788;9.214;2023-04-24T18:10:30;2.05;;;0.90;;
40815;SDS011;26535;48.788;9.214;2023-04-24T18:12:57;3.85;;;1.20;;
40815;SDS011;26535;48.788;9.214;2023-04-24T18:15:23;4.03;;;1.00;;
40815;SDS011;26535;48.788;9.214;2023-04-24T18:17:50;2.25;;;0.98;;
40815;SDS011;26535;48.788;9.214;2023-04-24T18:20:16;3.05;;;0.98;;
40815;SDS011;26535;48.788;9.214;2023-04-24T18:22:42;1.67;;;0.88;;
40815;SDS011;26535;48.788;9.214;2023-04-24T18:25:08;2.50;;;0.90;;
40815;SDS011;26535;48.788;9.214;2023-04-24T18:27:35;2.85;;;1.10;;
40815;SDS011;26535;48.788;9.214;2023-04-24T18:30:01;1.92;;;1.10;;
40815;SDS011;26535;48.788;9.214;2023-04-24T18:32:28;2.20;;;0.90;;
40815;SDS011;26535;48.788;9.214;2023-04-24T18:34:53;3.40;;;1.13;;
40815;SDS011;26535;48.788;9.214;2023-04-24T18:37:19;2.53;;;1.30;;
40815;SDS011;26535;48.788;9.214;2023-04-24T18:39:45;2.33;;;1.20;;
40815;SDS011;26535;48.788;9.214;2023-04-24T18:42:11;2.10;;;0.90;;
40815;SDS011;26535;48.788;9.214;2023-04-24T18:44:36;2.03;;;1.10;;
40815;SDS011;26535;48.788;9.214;2023-04-24T18:47:07;2.15;;;1.20;;
40815;SDS011;26535;48.788;9.214;2023-04-24T18:49:33;3.25;;;1.40;;
40815;SDS011;26535;48.788;9.214;2023-04-24T18:51:59;3.38;;;1.10;;
40815;SDS011;26535;48.788;9.214;2023-04-24T18:54:25;2.53;;;1.02;;
40815;SDS011;26535;48.788;9.214;2023-04-24T18:56:51;2.88;;;1.30;;
40815;SDS011;26535;48.788;9.214;2023-04-24T18:59:17;3.25;;;1.30;;
40815;SDS011;26535;48.788;9.214;2023-04-24T19:01:43;3.55;;;1.38;;
40815;SDS011;26535;48.788;9.214;2023-04-24T19:04:09;3.33;;;1.58;;
40815;SDS011;26535;48.788;9.214;2023-04-24T19:06:35;3.22;;;1.38;;
40815;SDS011;26535;48.788;9.214;2023-04-24T19:09:01;3.85;;;1.83;;
40815;SDS011;26535;48.788;9.214;2023-04-24T19:11:27;4.85;;;2.78;;
40815;SDS011;26535;48.788;9.214;2023-04-24T19:13:53;6.43;;;3.80;;
40815;SDS011;26535;48.788;9.214;2023-04-24T19:16:19;5.22;;;2.63;;
40815;SDS011;26535;48.788;9.214;2023-04-24T19:18:45;4.93;;;3.10;;
40815;SDS011;26535;48.788;9.214;2023-04-24T19:21:11;3.95;;;2.10;;
40815;SDS011;26535;48.788;9.214;2023-04-24T19:23:36;3.72;;;2.08;;
40815;SDS011;26535;48.788;9.214;2023-04-24T19:26:06;3.50;;;1.77;;
40815;SDS011;26535;48.788;9.214;2023-04-24T19:28:31;4.43;;;2.10;;
40815;SDS011;26535;48.788;9.214;2023-04-24T19:30:57;5.68;;;2.50;;
40815;SDS011;26535;48.788;9.214;2023-04-24T19:33:26;3.58;;;2.00;;
40815;SDS011;26535;48.788;9.214;2023-04-24T19:35:52;5.07;;;1.95;;
40815;SDS011;26535;48.788;9.214;2023-04-24T19:38:18;3.92;;;1.77;;
40815;SDS011;26535;48.788;9.214;2023-04-24T19:40:44;5.50;;;3.03;;
40815;SDS011;26535;48.788;9.214;2023-04-24T19:43:10;10.43;;;6.07;;
40815;SDS011;26535;48.788;9.214;2023-04-24T19:45:36;10.98;;;5.47;;
40815;SDS011;26535;48.788;9.214;2023-04-24T19:48:02;12.35;;;5.30;;
40815;SDS011;26535;48.788;9.214;2023-04-24T19:50:28;11.15;;;6.75;;
40815;SDS011;26535;48.788;9.214;2023-04-24T19:52:55;5.05;;;2.70;;
40815;SDS011;26535;48.788;9.214;2023-04-24T19:55:21;5.38;;;2.08;;
40815;SDS011;26535;48.788;9.214;2023-04-24T19:57:47;4.03;;;1.98;;
40815;SDS011;26535;48.788;9.214;2023-04-24T20:00:13;5.53;;;2.15;;
40815;SDS011;26535;48.788;9.214;2023-04-24T20:02:39;3.13;;;1.40;;
40815;SDS011;26535;48.788;9.214;2023-04-24T20:05:05;2.83;;;1.40;;
40815;SDS011;26535;48.788;9.214;2023-04-24T20:07:31;4.07;;;1.85;;
40815;SDS011;26535;48.788;9.214;2023-04-24T20:09:57;3.33;;;2.28;;
40815;SDS011;26535;48.788;9.214;2023-04-24T20:12:22;2.97;;;1.90;;
40815;SDS011;26535;48.788;9.214;2023-04-24T20:14:48;3.10;;;1.63;;